Time;durP1;ratioP1;P1;durP2;ratioP2;P2;SDS_P1;SDS_P2;PMS_P1;PMS_P2;Temp;Humidity;BMP_temperature;BMP_pressure;BME280_temperature;BME280_humidity;BME280_pressure;Samples;Min_cycle;Max_cycle;Signal;HPM_P1;HPM_P2
2023/03/14 00:01:33;;;;;;;10.52;6.05;;;;;;;2.00;56.72;62203.59;5015533;28;20226;-79
2023/03/14 00:04:05;;;;;;;9.40;5.55;;;;;;;1.95;58.16;62197.97;5029987;28;20207;-79
2023/03/14 00:06:33;;;;;;;6.15;5.45;;;;;;;1.96;56.38;62201.50;5027677;28;20234;-78
2023/03/14 00:09:01;;;;;;;7.85;5.28;;;;;;;2.04;56.01;62207.19;5012184;28;20207;-80
2023/03/14 00:11:29;;;;;;;8.77;5.53;;;;;;;1.98;56.15;62201.56;5020401;28;20229;-79
2023/03/14 00:13:59;;;;;;;6.43;4.95;;;;;;;1.93;56.12;62195.91;5030182;28;20191;-81
2023/03/14 00:16:29;;;;;;;6.22;4.88;;;;;;;1.88;56.33;62193.28;5021303;28;20241;-79
2023/03/14 00:18:56;;;;;;;6.57;5.13;;;;;;;1.86;56.91;62193.75;5010103;28;20199;-79
2023/03/14 00:21:26;;;;;;;8.55;5.68;;;;;;;1.79;57.34;62184.03;5028311;28;20222;-79
2023/03/14 00:23:54;;;;;;;12.27;9.23;;;;;;;1.56;57.66;62157.91;5023978;28;20206;-81
2023/03/14 00:26:24;;;;;;;5.68;5.13;;;;;;;1.70;57.80;62174.81;5008722;28;20231;-80
2023/03/14 00:28:54;;;;;;;7.75;6.18;;;;;;;1.69;57.81;62173.78;5016187;28;20210;-80
2023/03/14 00:31:21;;;;;;;9.50;6.22;;;;;;;1.74;58.75;62178.91;5015320;28;20218;-78
2023/03/14 00:33:50;;;;;;;4.78;4.30;;;;;;;1.66;58.12;62168.69;5021990;28;20209;-80
2023/03/14 00:36:20;;;;;;;7.13;5.60;;;;;;;1.60;59.15;62165.06;5012543;28;20223;-79
2023/03/14 00:38:50;;;;;;;11.10;6.55;;;;;;;1.63;59.23;62170.13;5009834;28;20187;-78
2023/03/14 00:41:19;;;;;;;8.80;6.18;;;;;;;1.58;59.41;62163.00;5009602;28;20219;-79
2023/03/14 00:43:47;;;;;;;7.47;5.32;;;;;;;1.62;60.32;62166.59;5028883;28;20195;-80
2023/03/14 00:46:16;;;;;;;5.93;5.10;;;;;;;1.65;61.06;62167.69;5028197;28;20234;-80
2023/03/14 00:48:47;;;;;;;10.00;5.63;;;;;;;1.75;60.22;62180.44;5032489;28;20198;-80
2023/03/14 00:51:16;;;;;;;7.53;5.18;;;;;;;1.74;60.46;62176.91;5026644;28;20222;-80
2023/03/14 00:53:45;;;;;;;9.00;5.40;;;;;;;1.85;60.76;62192.69;5029273;28;20218;-79
2023/03/14 00:56:15;;;;;;;5.20;4.70;;;;;;;1.83;61.39;62188.16;5031475;28;20206;-80
2023/03/14 00:58:42;;;;;;;10.95;6.38;;;;;;;1.79;61.21;62184.56;5028527;28;20266;-80
2023/03/14 01:01:11;;;;;;;11.60;7.00;;;;;;;1.76;61.97;62178.47;5026685;28;20207;-80
2023/03/14 01:03:38;;;;;;;7.28;5.70;;;;;;;1.78;61.92;62188.53;5028000;28;20493;-78
2023/03/14 01:06:11;;;;;;;7.88;6.00;;;;;;;1.66;64.02;62168.69;5020997;28;20265;-80
2023/03/14 01:08:39;;;;;;;7.28;5.30;;;;;;;1.58;62.74;62163.00;5011379;28;20210;-79
2023/03/14 01:11:08;;;;;;;8.60;6.25;;;;;;;1.44;63.78;62151.13;5028351;28;20244;-80
2023/03/14 01:13:37;;;;;;;12.10;7.05;;;;;;;1.35;64.21;62141.41;5028603;28;20198;-77
2023/03/14 01:16:06;;;;;;;11.48;6.72;;;;;;;1.36;64.59;62142.41;5026733;28;20206;-79
2023/03/14 01:18:35;;;;;;;12.57;8.07;;;;;;;1.38;64.92;62139.47;5027272;28;20225;-79
2023/03/14 01:21:03;;;;;;;12.70;7.95;;;;;;;1.34;65.53;62138.38;5008804;28;20206;-80
2023/03/14 01:23:30;;;;;;;11.35;7.07;;;;;;;1.31;65.87;62134.78;5030409;28;20210;-77
2023/03/14 01:25:58;;;;;;;11.90;7.97;;;;;;;1.38;65.88;62144.97;5027514;28;20226;-79
2023/03/14 01:28:25;;;;;;;15.27;7.70;;;;;;;1.33;66.89;62137.34;5028108;28;20221;-78
2023/03/14 01:30:55;;;;;;;11.30;7.63;;;;;;;1.32;67.38;62136.31;5030923;28;20199;-80
2023/03/14 01:33:23;;;;;;;10.55;7.45;;;;;;;1.37;66.54;62143.94;5034688;28;20194;-81
2023/03/14 01:35:51;;;;;;;10.57;6.57;;;;;;;1.31;66.54;62132.28;5031746;28;20198;-80
2023/03/14 01:38:18;;;;;;;8.93;6.22;;;;;;;1.31;66.76;62132.78;5034296;28;20222;-80
2023/03/14 01:40:45;;;;;;;7.57;5.20;;;;;;;1.35;65.62;62138.88;5032155;28;20250;-80
2023/03/14 01:43:17;;;;;;;8.75;5.90;;;;;;;1.30;64.41;62136.78;5021686;28;20223;-79
2023/03/14 01:46:25;;;;;;;7.07;5.70;;;;;;;1.40;63.89;62144.53;5013076;28;20207;-79
2023/03/14 01:49:00;;;;;;;9.60;6.35;;;;;;;1.34;65.02;62135.88;4974848;28;20238;-80
2023/03/14 01:51:31;;;;;;;8.98;5.65;;;;;;;1.33;66.55;62136.84;5013257;28;20226;-79
2023/03/14 01:54:05;;;;;;;6.75;5.18;;;;;;;1.25;68.72;62133.63;5014446;28;20202;-79
2023/03/14 01:56:32;;;;;;;8.35;5.80;;;;;;;1.14;68.43;62117.84;5031717;28;20221;-79
2023/03/14 01:59:01;;;;;;;11.38;5.88;;;;;;;1.08;67.89;62111.69;5030231;28;20205;-79
2023/03/14 02:01:30;;;;;;;10.45;6.18;;;;;;;1.14;67.85;62120.34;5033784;28;20223;-78
2023/03/14 02:04:02;;;;;;;13.45;8.73;;;;;;;1.14;67.63;62115.84;5029731;28;20256;-79
2023/03/14 02:06:36;;;;;;;15.00;9.45;;;;;;;1.04;68.25;62113.13;5030156;28;20231;-78
2023/03/14 02:09:04;;;;;;;10.88;7.90;;;;;;;1.07;68.47;62108.16;5030322;28;20183;-78
2023/03/14 02:11:31;;;;;;;10.32;6.60;;;;;;;1.10;69.07;62113.75;5028713;28;20214;-78
2023/03/14 02:14:00;;;;;;;12.93;6.75;;;;;;;1.04;69.44;62107.59;5009693;28;20210;-78
2023/03/14 02:16:27;;;;;;;15.52;6.78;;;;;;;1.11;68.56;62117.28;5011055;28;20231;-79
2023/03/14 02:18:54;;;;;;;10.88;6.15;;;;;;;1.07;67.67;62108.16;5010136;28;20227;-79
2023/03/14 02:21:32;;;;;;;8.10;6.22;;;;;;;1.19;68.40;62123.50;5016173;28;20234;-78
2023/03/14 02:24:10;;;;;;;7.60;5.53;;;;;;;1.24;68.76;62128.13;5031760;28;20253;-79
2023/03/14 02:26:42;;;;;;;8.20;5.82;;;;;;;1.09;69.95;62115.22;5030822;28;20238;-79
2023/03/14 02:29:10;;;;;;;6.30;5.40;;;;;;;1.10;69.43;62113.75;5030693;28;20202;-79
2023/03/14 02:31:37;;;;;;;8.80;5.40;;;;;;;1.11;69.80;62114.78;5030898;28;20219;-80
2023/03/14 02:34:05;;;;;;;7.25;4.93;;;;;;;1.11;69.98;62110.28;5029766;28;20198;-78
2023/03/14 02:36:33;;;;;;;6.38;5.75;;;;;;;1.02;70.00;62106.06;5028351;28;20218;-79
2023/03/14 02:39:09;;;;;;;5.78;5.18;;;;;;;1.08;70.04;62114.19;5029614;28;20255;-79
2023/03/14 02:41:36;;;;;;;6.40;5.22;;;;;;;0.94;70.11;62099.84;5029968;28;20237;-79
2023/03/14 02:44:03;;;;;;;10.02;5.78;;;;;;;1.05;71.07;62109.13;5012771;28;20211;-79
2023/03/14 02:46:32;;;;;;;6.90;5.60;;;;;;;0.96;71.91;62099.38;5018000;28;20250;-79
2023/03/14 02:49:04;;;;;;;6.32;5.10;;;;;;;0.98;72.36;62099.44;5019623;28;20271;-79
2023/03/14 02:51:33;;;;;;;5.63;4.75;;;;;;;1.03;72.26;62106.56;5018046;28;20261;-78
2023/03/14 02:54:00;;;;;;;7.93;6.55;;;;;;;0.97;71.69;62097.91;5029467;28;20195;-79
2023/03/14 02:56:27;;;;;;;8.68;5.47;;;;;;;0.98;70.70;62099.44;5029795;28;20237;-78
2023/03/14 02:58:54;;;;;;;7.13;5.93;;;;;;;0.99;70.96;62102.97;5028191;28;20206;-79
2023/03/14 03:01:20;;;;;;;14.60;6.68;;;;;;;0.93;71.16;62099.31;5028295;28;20538;-79
2023/03/14 03:03:49;;;;;;;11.05;6.15;;;;;;;0.97;71.40;62095.41;5030767;28;20195;-77
2023/03/14 03:06:16;;;;;;;10.15;6.93;;;;;;;0.93;71.92;62098.81;5028445;28;20223;-79
2023/03/14 03:08:43;;;;;;;11.00;7.43;;;;;;;0.98;72.04;62099.44;5029098;28;20273;-79
2023/03/14 03:11:10;;;;;;;13.55;6.03;;;;;;;0.97;72.77;62103.44;5030063;28;20312;-78
2023/03/14 03:13:37;;;;;;;12.35;6.60;;;;;;;0.99;73.00;62102.97;5008938;28;20210;-79
2023/03/14 03:16:05;;;;;;;7.57;4.93;;;;;;;1.03;72.00;62109.59;5023227;28;20214;-78
2023/03/14 03:18:32;;;;;;;4.90;4.40;;;;;;;1.02;71.64;62106.06;5029382;28;20206;-79
2023/03/14 03:21:03;;;;;;;5.25;4.03;;;;;;;0.96;70.98;62101.91;5025382;28;20249;-78
2023/03/14 03:23:30;;;;;;;6.97;4.88;;;;;;;0.96;69.80;62099.91;5031387;28;20199;-78
2023/03/14 03:25:57;;;;;;;4.80;4.30;;;;;;;1.00;69.96;62101.50;5027677;28;20274;-79
2023/03/14 03:28:24;;;;;;;4.63;3.63;;;;;;;0.91;70.67;62094.78;5028204;28;20233;-78
2023/03/14 03:30:51;;;;;;;3.47;3.17;;;;;;;0.83;71.92;62089.06;5026388;28;20207;-78
2023/03/14 03:33:18;;;;;;;7.10;4.63;;;;;;;0.89;71.21;62090.22;5026490;28;20203;-79
2023/03/14 03:35:47;;;;;;;3.35;3.08;;;;;;;0.88;73.17;62089.19;5028272;28;20199;-78
2023/03/14 03:38:16;;;;;;;5.05;3.92;;;;;;;0.82;74.36;62088.03;5028821;28;20294;-79
2023/03/14 03:40:43;;;;;;;5.95;3.72;;;;;;;0.76;74.21;62076.38;5027621;28;20198;-78
2023/03/14 03:43:10;;;;;;;4.35;3.25;;;;;;;0.73;74.69;62068.28;5029069;28;20233;-79
2023/03/14 03:45:38;;;;;;;5.28;4.10;;;;;;;0.73;74.51;62073.28;5028571;28;20320;-78
2023/03/14 03:48:05;;;;;;;5.85;4.80;;;;;;;0.67;74.14;62072.16;5024295;28;20241;-79
2023/03/14 03:50:32;;;;;;;5.57;4.28;;;;;;;0.67;73.73;62074.66;5021576;28;20198;-79
2023/03/14 03:52:59;;;;;;;5.72;4.30;;;;;;;0.66;74.83;62071.63;5011247;28;20235;-78
2023/03/14 03:55:27;;;;;;;9.75;5.78;;;;;;;0.62;75.05;62062.50;5008583;28;20385;-80
2023/03/14 03:57:55;;;;;;;5.18;4.57;;;;;;;0.64;75.83;62069.56;5010427;28;20226;-78
2023/03/14 04:00:23;;;;;;;7.80;5.35;;;;;;;0.64;76.11;62069.56;5010699;28;20513;-79
2023/03/14 04:02:52;;;;;;;19.05;7.15;;;;;;;0.55;77.13;62059.84;5027536;28;20239;-80
2023/03/14 04:05:20;;;;;;;14.45;7.15;;;;;;;0.50;78.07;62054.72;5027809;28;20199;-80
2023/03/14 04:07:47;;;;;;;9.60;6.55;;;;;;;0.47;78.94;62044.13;5027510;28;20289;-78
2023/03/14 04:10:14;;;;;;;8.75;5.97;;;;;;;0.53;78.98;62050.81;5026842;28;20195;-79
2023/03/14 04:12:42;;;;;;;14.02;6.95;;;;;;;0.47;79.37;62046.63;5026896;28;20431;-78
2023/03/14 04:15:10;;;;;;;8.20;6.50;;;;;;;0.46;79.91;62046.13;5026839;28;20362;-79
2023/03/14 04:17:37;;;;;;;6.93;5.18;;;;;;;0.47;80.51;62046.63;5028378;28;20231;-79
2023/03/14 04:20:05;;;;;;;6.80;5.20;;;;;;;0.48;80.18;62047.66;5025826;28;20270;-78
2023/03/14 04:22:31;;;;;;;6.43;5.32;;;;;;;0.48;79.88;62053.19;5026415;28;20442;-79
2023/03/14 04:24:58;;;;;;;10.57;5.40;;;;;;;0.45;79.61;62044.59;5026827;28;20198;-78
2023/03/14 04:27:25;;;;;;;6.03;5.30;;;;;;;0.38;79.44;62040.41;5020060;28;20241;-78
2023/03/14 04:29:54;;;;;;;6.78;5.88;;;;;;;0.31;79.26;62040.25;5028202;28;20218;-80
2023/03/14 04:32:21;;;;;;;6.97;5.03;;;;;;;0.26;79.16;62028.13;5024534;28;20222;-79
2023/03/14 04:34:48;;;;;;;7.10;4.70;;;;;;;0.32;79.41;62034.28;5028737;28;20210;-78
2023/03/14 04:37:15;;;;;;;7.57;5.50;;;;;;;0.13;79.95;62016.78;5025800;28;20225;-79
2023/03/14 04:39:42;;;;;;;9.18;4.43;;;;;;;0.15;79.84;62021.84;5019856;28;20195;-78
2023/03/14 04:42:09;;;;;;;5.22;4.63;;;;;;;0.21;79.72;62020.50;5025475;28;20229;-77
2023/03/14 04:44:36;;;;;;;5.57;4.63;;;;;;;0.30;79.85;62031.69;5026486;28;20199;-77
2023/03/14 04:47:04;;;;;;;6.43;5.07;;;;;;;0.24;80.45;62026.09;5024369;28;20257;-77
2023/03/14 04:49:31;;;;;;;5.13;4.63;;;;;;;0.30;80.76;62034.22;5026470;28;20237;-77
2023/03/14 04:51:58;;;;;;;6.88;6.03;;;;;;;0.28;81.36;62024.66;5024802;28;20445;-77
2023/03/14 04:54:25;;;;;;;10.40;7.57;;;;;;;0.28;81.44;62024.66;5025575;28;20199;-78
2023/03/14 04:56:51;;;;;;;10.63;7.38;;;;;;;0.32;81.56;62028.75;5023018;28;20241;-78
2023/03/14 04:59:18;;;;;;;10.43;7.28;;;;;;;0.29;81.96;62033.72;5022475;28;20210;-78
2023/03/14 05:01:45;;;;;;;12.45;7.63;;;;;;;0.37;81.99;62039.41;5017956;28;20257;-78
2023/03/14 05:04:13;;;;;;;11.23;7.95;;;;;;;0.39;81.74;62038.44;5022897;28;20249;-78
2023/03/14 05:06:42;;;;;;;14.13;8.23;;;;;;;0.46;82.10;62045.59;5020046;28;20262;-79
2023/03/14 05:09:09;;;;;;;12.65;7.25;;;;;;;0.47;82.27;62046.63;5016323;28;20234;-78
2023/03/14 05:11:36;;;;;;;9.02;7.43;;;;;;;0.52;82.26;62059.78;5015954;28;20211;-78
2023/03/14 05:14:03;;;;;;;13.32;7.88;;;;;;;0.63;82.01;62065.53;5013990;28;20404;-78
2023/03/14 05:16:31;;;;;;;11.30;7.00;;;;;;;0.67;82.18;62067.66;5008831;28;20250;-77
2023/03/14 05:18:57;;;;;;;11.73;8.50;;;;;;;0.76;82.64;62079.38;5010292;28;20203;-78
2023/03/14 05:21:26;;;;;;;10.98;7.10;;;;;;;0.87;82.86;62087.66;5009994;28;20327;-78
2023/03/14 05:23:53;;;;;;;12.90;8.55;;;;;;;1.00;82.39;62104.00;5019744;28;20203;-81
2023/03/14 05:26:20;;;;;;;19.40;13.10;;;;;;;1.08;80.99;62109.72;5018207;28;20283;-77
2023/03/14 05:28:47;;;;;;;12.00;8.35;;;;;;;1.26;80.97;62127.16;5011978;28;20569;-78
2023/03/14 05:31:14;;;;;;;15.25;9.10;;;;;;;1.36;81.10;62139.91;5024426;28;20289;-78
2023/03/14 05:33:41;;;;;;;9.65;7.25;;;;;;;1.50;80.67;62154.28;5028025;28;20199;-78
2023/03/14 05:36:09;;;;;;;11.95;7.03;;;;;;;1.67;78.56;62172.25;5020332;28;20206;-78
2023/03/14 05:38:37;;;;;;;8.20;5.95;;;;;;;1.75;79.65;62180.44;5031233;28;20250;-78
2023/03/14 05:41:05;;;;;;;7.80;5.85;;;;;;;1.91;78.40;62193.84;5025895;28;20230;-78
2023/03/14 05:43:32;;;;;;;7.68;6.30;;;;;;;2.10;76.53;62215.88;5024778;28;20210;-79
2023/03/14 05:45:59;;;;;;;12.38;6.75;;;;;;;2.28;74.55;62237.38;5019691;28;20210;-78
2023/03/14 05:48:26;;;;;;;9.70;6.63;;;;;;;2.45;72.83;62249.28;5026325;28;20231;-79
2023/03/14 05:50:56;;;;;;;10.48;7.78;;;;;;;2.50;71.23;62259.47;5028213;28;20225;-79
2023/03/14 05:53:23;;;;;;;12.55;7.30;;;;;;;2.64;70.11;62268.31;5024515;28;20194;-77
2023/03/14 05:55:53;;;;;;;11.35;7.50;;;;;;;2.65;68.47;62269.84;5023170;28;20202;-80
2023/03/14 05:58:20;;;;;;;13.40;8.02;;;;;;;2.67;68.09;62274.41;5022570;28;20201;-78
2023/03/14 06:00:47;;;;;;;11.00;8.98;;;;;;;2.88;66.47;62293.47;5025630;28;20194;-78
2023/03/14 06:03:14;;;;;;;14.05;7.70;;;;;;;2.92;66.57;62299.59;5024842;28;20449;-79
2023/03/14 06:05:41;;;;;;;13.85;9.13;;;;;;;3.09;66.71;62317.56;5019277;28;20608;-78
2023/03/14 06:08:08;;;;;;;11.10;8.20;;;;;;;3.02;64.92;62312.38;5008496;28;20274;-78
2023/03/14 06:10:37;;;;;;;8.55;7.38;;;;;;;3.02;64.71;62310.38;5020845;28;20195;-79
2023/03/14 06:13:05;;;;;;;11.95;8.68;;;;;;;2.88;65.30;62292.97;5021931;28;20245;-78
2023/03/14 06:15:35;;;;;;;15.88;8.88;;;;;;;2.79;65.77;62284.25;5027639;28;20207;-78
2023/03/14 06:18:02;;;;;;;15.13;8.45;;;;;;;2.87;66.83;62294.44;5028111;28;20214;-78
2023/03/14 06:20:29;;;;;;;20.45;9.98;;;;;;;2.96;66.85;62309.25;5031261;28;20191;-80
2023/03/14 06:22:56;;;;;;;12.02;9.50;;;;;;;3.03;66.50;62313.41;5028206;28;20285;-79
2023/03/14 06:25:23;;;;;;;13.45;8.65;;;;;;;2.98;65.56;62305.75;5028191;28;20203;-79
2023/03/14 06:27:50;;;;;;;15.98;8.00;;;;;;;2.86;65.67;62296.47;5029369;28;20241;-80
2023/03/14 06:30:20;;;;;;;11.02;7.55;;;;;;;2.88;66.37;62292.97;5030302;28;20213;-80
2023/03/14 06:32:47;;;;;;;9.18;7.80;;;;;;;2.98;66.01;62303.75;5029630;28;20230;-81
2023/03/14 06:35:14;;;;;;;12.25;8.00;;;;;;;2.94;65.75;62299.66;5031374;28;20206;-79
2023/03/14 06:37:41;;;;;;;16.60;7.70;;;;;;;3.16;65.67;62321.72;5032388;28;20318;-79
2023/03/14 06:40:09;;;;;;;16.15;6.78;;;;;;;3.34;64.96;62340.25;5029375;28;20202;-79
2023/03/14 06:42:36;;;;;;;9.20;6.10;;;;;;;3.49;64.12;62355.66;5028401;28;20223;-78
2023/03/14 06:45:04;;;;;;;11.80;7.22;;;;;;;3.46;63.54;62352.59;5029105;28;20515;-77
2023/03/14 06:47:32;;;;;;;9.73;6.57;;;;;;;3.67;64.46;62376.19;5028447;28;20215;-78
2023/03/14 06:50:01;;;;;;;11.18;6.60;;;;;;;3.81;63.27;62388.06;5029986;28;20491;-78
2023/03/14 06:52:28;;;;;;;7.97;5.70;;;;;;;3.98;63.31;62408.59;5033251;28;20230;-78
2023/03/14 06:54:55;;;;;;;7.88;6.40;;;;;;;4.11;63.37;62419.44;5034676;28;20195;-77
2023/03/14 06:57:22;;;;;;;7.50;5.38;;;;;;;4.39;62.64;62452.75;5029071;28;20558;-78
2023/03/14 06:59:49;;;;;;;7.72;5.78;;;;;;;4.57;62.23;62468.78;5027551;28;20209;-78
2023/03/14 07:02:16;;;;;;;7.32;6.03;;;;;;;4.67;62.06;62481.59;5028792;28;20268;-78
2023/03/14 07:04:44;;;;;;;7.53;5.00;;;;;;;4.82;61.87;62488.94;5029586;28;20202;-78
2023/03/14 07:07:11;;;;;;;6.50;5.25;;;;;;;4.93;61.68;62510.88;5030377;28;20219;-78
2023/03/14 07:09:38;;;;;;;5.95;5.05;;;;;;;4.78;60.57;62490.38;5030792;28;20233;-77
2023/03/14 07:12:06;;;;;;;8.98;5.25;;;;;;;4.93;59.87;62505.31;5029317;28;20219;-79
2023/03/14 07:14:33;;;;;;;5.30;4.05;;;;;;;5.05;59.50;62515.69;5028375;28;20211;-78
2023/03/14 07:17:00;;;;;;;6.30;4.82;;;;;;;5.17;59.09;62527.50;5024601;28;20227;-79
2023/03/14 07:19:27;;;;;;;6.25;4.53;;;;;;;5.19;58.71;62535.13;5027849;28;20482;-79
2023/03/14 07:21:55;;;;;;;8.57;4.75;;;;;;;5.10;58.58;62520.81;5029620;28;20218;-78
2023/03/14 07:24:22;;;;;;;6.28;5.25;;;;;;;5.26;59.01;62537.31;5031057;28;20267;-78
2023/03/14 07:26:49;;;;;;;5.15;4.15;;;;;;;5.26;58.00;62537.31;5026877;28;20543;-80
2023/03/14 07:29:16;;;;;;;8.15;4.82;;;;;;;5.24;58.70;62539.75;5028149;28;20234;-78
2023/03/14 07:31:43;;;;;;;5.57;4.68;;;;;;;5.21;58.79;62537.19;5027772;28;20253;-79
2023/03/14 07:34:10;;;;;;;5.10;4.38;;;;;;;5.15;59.14;62527.97;5026840;28;20207;-78
2023/03/14 07:36:36;;;;;;;7.40;4.65;;;;;;;5.36;59.36;62552.13;5028223;28;20219;-78
2023/03/14 07:39:05;;;;;;;7.90;4.75;;;;;;;5.41;58.51;62552.22;5030027;28;20201;-78
2023/03/14 07:41:32;;;;;;;7.20;5.38;;;;;;;5.32;59.03;62545.47;5028143;28;20238;-77
2023/03/14 07:43:59;;;;;;;5.20;4.70;;;;;;;5.45;57.83;62559.38;5027870;28;20199;-77
2023/03/14 07:46:26;;;;;;;6.45;5.30;;;;;;;5.48;58.60;62565.00;5027714;28;20266;-77
2023/03/14 07:48:53;;;;;;;9.93;6.15;;;;;;;5.61;57.93;62575.34;5026148;28;20244;-78
2023/03/14 07:51:19;;;;;;;7.78;6.50;;;;;;;5.76;57.00;62588.28;5024457;28;20226;-78
2023/03/14 07:53:46;;;;;;;9.00;6.10;;;;;;;5.95;58.72;62610.41;5028108;28;20231;-78
2023/03/14 07:56:15;;;;;;;7.03;5.72;;;;;;;6.12;56.58;62627.94;5029297;28;20230;-78
2023/03/14 07:58:42;;;;;;;11.63;5.85;;;;;;;5.80;55.22;62594.94;5025001;28;20445;-77
2023/03/14 08:01:08;;;;;;;8.02;6.10;;;;;;;5.73;56.38;62585.19;5026212;28;20211;-77
2023/03/14 08:03:35;;;;;;;9.70;6.10;;;;;;;5.81;55.75;62599.03;5024122;28;20206;-76
2023/03/14 08:06:03;;;;;;;9.23;6.07;;;;;;;5.82;56.10;62600.06;5027109;28;20201;-78
2023/03/14 08:08:30;;;;;;;9.65;6.13;;;;;;;6.05;55.00;62615.66;5029132;28;20519;-78
2023/03/14 08:10:57;;;;;;;7.07;6.38;;;;;;;6.16;55.23;62634.06;5027700;28;20198;-77
2023/03/14 08:13:25;;;;;;;5.35;4.85;;;;;;;6.36;54.54;62652.16;5026387;28;20214;-78
2023/03/14 08:15:52;;;;;;;8.70;5.95;;;;;;;6.57;54.05;62676.88;5026932;28;20229;-77
2023/03/14 08:18:19;;;;;;;7.72;6.25;;;;;;;6.74;53.53;62691.88;5026528;28;20201;-78
2023/03/14 08:20:46;;;;;;;6.45;5.78;;;;;;;6.76;52.40;62696.47;5027913;28;20367;-76
2023/03/14 08:23:12;;;;;;;8.25;6.47;;;;;;;6.88;52.21;62708.84;5025954;28;20231;-78
2023/03/14 08:25:40;;;;;;;11.45;6.47;;;;;;;6.98;52.36;62716.09;5028434;28;20208;-79
2023/03/14 08:28:07;;;;;;;8.00;6.85;;;;;;;6.90;51.43;62710.88;5029272;28;20234;-78
2023/03/14 08:30:36;;;;;;;12.98;7.15;;;;;;;6.88;51.45;62703.78;5025423;28;20241;-78
2023/03/14 08:33:02;;;;;;;12.15;7.20;;;;;;;7.11;51.42;62729.50;5026653;28;20550;-78
2023/03/14 08:35:30;;;;;;;13.45;6.55;;;;;;;7.32;50.99;62748.66;5026529;28;20205;-79
2023/03/14 08:37:57;;;;;;;9.48;6.53;;;;;;;7.44;50.20;62763.06;5027909;28;20227;-78
2023/03/14 08:40:24;;;;;;;10.18;6.70;;;;;;;7.58;49.65;62778.00;5027361;28;20214;-78
2023/03/14 08:42:50;;;;;;;22.67;7.97;;;;;;;7.55;49.27;62774.91;5028486;28;20222;-77
2023/03/14 08:45:18;;;;;;;11.65;7.43;;;;;;;7.54;49.54;62771.34;5026650;28;20198;-79
2023/03/14 08:47:46;;;;;;;8.43;7.05;;;;;;;7.65;48.63;62784.72;5028132;28;20218;-79
2023/03/14 08:50:14;;;;;;;10.85;7.20;;;;;;;7.52;48.26;62768.78;5024304;28;20242;-79
2023/03/14 08:52:41;;;;;;;9.45;6.78;;;;;;;7.63;47.86;62783.19;5029851;28;20237;-78
2023/03/14 08:55:09;;;;;;;9.82;6.72;;;;;;;7.75;47.49;62798.09;5028663;28;20297;-79
2023/03/14 08:57:36;;;;;;;9.90;6.40;;;;;;;7.80;46.95;62803.25;5025306;28;20222;-78
2023/03/14 09:00:10;;;;;;;9.35;7.00;;;;;;;7.99;47.43;62822.34;5026848;28;20198;-78
2023/03/14 09:02:37;;;;;;;14.07;6.97;;;;;;;8.25;47.61;62843.66;5022677;28;20219;-78
2023/03/14 09:05:06;;;;;;;12.35;6.70;;;;;;;8.34;45.17;62855.47;5023591;28;20198;-78
2023/03/14 09:07:33;;;;;;;8.40;6.72;;;;;;;8.40;45.61;62859.66;5018778;28;20262;-78
2023/03/14 09:10:00;;;;;;;8.40;6.22;;;;;;;8.50;45.59;62877.06;5025459;28;20231;-78
2023/03/14 09:12:27;;;;;;;11.63;7.82;;;;;;;8.54;44.83;62876.13;5025499;28;20416;-79
2023/03/14 09:14:54;;;;;;;18.10;8.48;;;;;;;8.66;46.03;62889.03;5021100;28;20267;-79
2023/03/14 09:17:20;;;;;;;11.50;6.53;;;;;;;8.88;44.85;62911.25;5023902;28;20289;-78
2023/03/14 09:19:47;;;;;;;11.05;7.22;;;;;;;8.80;45.91;62903.50;5025434;28;20261;-79
2023/03/14 09:22:16;;;;;;;19.88;9.05;;;;;;;9.15;44.87;62941.72;5024023;28;20222;-78
2023/03/14 09:24:43;;;;;;;27.85;18.77;;;;;;;9.21;44.81;62948.41;5023742;28;20206;-79
2023/03/14 09:27:10;;;;;;;15.15;10.73;;;;;;;9.43;43.72;62968.13;5026731;28;20218;-77
2023/03/14 09:29:37;;;;;;;11.93;7.45;;;;;;;9.60;42.97;62982.63;5025840;28;20233;-76
2023/03/14 09:32:04;;;;;;;14.18;6.97;;;;;;;9.61;43.70;62984.19;5022766;28;20230;-78
2023/03/14 09:34:31;;;;;;;9.50;6.88;;;;;;;9.78;43.01;63009.41;5020911;28;20199;-78
2023/03/14 09:36:58;;;;;;;8.60;6.93;;;;;;;9.82;42.68;63005.41;5026522;28;20249;-78
2023/03/14 09:39:26;;;;;;;8.85;6.82;;;;;;;9.86;43.19;63015.13;5025411;28;20714;-79
2023/03/14 09:41:56;;;;;;;12.48;8.02;;;;;;;9.83;42.37;63004.41;5024734;28;20214;-78
2023/03/14 09:44:27;;;;;;;10.70;7.60;;;;;;;9.63;43.31;62988.28;5024199;28;20245;-78
2023/03/14 09:46:58;;;;;;;9.02;8.13;;;;;;;9.76;43.35;63004.25;5024938;28;20355;-78
2023/03/14 09:49:29;;;;;;;13.55;8.73;;;;;;;9.99;43.01;63026.03;5027961;28;20214;-77
2023/03/14 09:52:00;;;;;;;14.02;7.90;;;;;;;10.21;42.92;63046.28;5021421;28;20226;-78
2023/03/14 09:54:36;;;;;;;9.23;7.50;;;;;;;10.46;42.38;63077.22;5025644;28;20201;-78
2023/03/14 09:57:05;;;;;;;18.02;7.88;;;;;;;10.60;43.12;63086.09;5027847;28;20335;-78
2023/03/14 09:59:35;;;;;;;10.70;7.70;;;;;;;11.03;42.52;63133.16;5028607;28;20195;-78
2023/03/14 10:02:13;;;;;;;8.65;7.43;;;;;;;10.78;40.70;63111.84;5026028;28;20519;-77
2023/03/14 10:04:44;;;;;;;9.13;6.25;;;;;;;10.53;41.71;63080.91;5028815;28;20202;-77
2023/03/14 10:07:15;;;;;;;8.80;6.30;;;;;;;10.66;41.05;63094.34;5029802;28;20222;-78
2023/03/14 10:09:46;;;;;;;11.30;6.93;;;;;;;10.77;40.38;63103.19;5029739;28;20285;-78
2023/03/14 10:12:14;;;;;;;9.88;6.30;;;;;;;10.94;40.11;63123.84;5029309;28;20257;-78
2023/03/14 10:14:49;;;;;;;8.10;6.03;;;;;;;11.16;39.95;63146.63;5026235;28;20206;-79
2023/03/14 10:17:17;;;;;;;9.07;5.72;;;;;;;11.29;40.15;63159.56;5028970;28;20244;-77
2023/03/14 10:19:56;;;;;;;5.93;5.28;;;;;;;11.32;39.92;63160.63;5026844;28;20492;-78
2023/03/14 10:22:27;;;;;;;7.13;5.97;;;;;;;11.51;39.98;63184.91;5028192;28;20274;-77
2023/03/14 10:24:59;;;;;;;7.93;5.97;;;;;;;11.69;40.90;63203.56;5024850;28;20218;-79
2023/03/14 10:27:31;;;;;;;6.22;5.72;;;;;;;11.93;39.79;63228.44;5016702;28;20512;-77
2023/03/14 10:30:00;;;;;;;7.25;5.90;;;;;;;12.17;38.94;63247.69;5025294;28;20222;-78
2023/03/14 10:32:34;;;;;;;7.47;6.10;;;;;;;12.18;39.20;63254.34;5029560;28;20218;-78
2023/03/14 10:35:20;;;;;;;6.07;5.47;;;;;;;12.57;39.60;63294.78;5008922;28;20452;-78
2023/03/14 10:37:54;;;;;;;9.38;7.78;;;;;;;12.89;38.74;63326.94;5024767;28;20450;-78
2023/03/14 10:40:28;;;;;;;9.32;6.38;;;;;;;12.96;37.55;63336.75;5031242;28;20198;-77
2023/03/14 10:42:56;;;;;;;10.43;6.18;;;;;;;12.42;38.63;63279.25;5028592;28;20217;-79
2023/03/14 10:45:33;;;;;;;7.07;5.95;;;;;;;12.34;39.36;63270.94;5027981;28;20206;-80
2023/03/14 10:48:08;;;;;;;15.95;7.40;;;;;;;12.30;39.43;63268.81;5011064;28;20278;-77
2023/03/14 10:50:35;;;;;;;10.10;6.78;;;;;;;11.96;40.50;63231.53;5014270;28;20290;-80
2023/03/14 10:53:05;;;;;;;7.43;5.15;;;;;;;12.24;39.78;63257.50;5026401;28;20399;-79
2023/03/14 10:55:44;;;;;;;5.53;5.03;;;;;;;12.53;39.87;63290.63;5029367;28;20198;-78
2023/03/14 10:58:23;;;;;;;12.40;6.32;;;;;;;12.61;39.83;63296.38;5032320;28;20218;-78
2023/03/14 11:00:57;;;;;;;8.70;5.75;;;;;;;12.87;40.44;63324.84;5012112;28;20510;-78
2023/03/14 11:03:25;;;;;;;5.95;5.40;;;;;;;13.16;39.50;63354.94;5009166;28;20427;-78
2023/03/14 11:05:57;;;;;;;7.50;5.93;;;;;;;13.24;39.86;63360.69;5009483;28;20207;-77
2023/03/14 11:08:28;;;;;;;9.05;5.43;;;;;;;13.46;39.05;63383.53;5013543;28;20191;-77
2023/03/14 11:11:09;;;;;;;5.78;5.28;;;;;;;13.49;38.14;63389.19;5027959;28;20289;-77
2023/03/14 11:13:41;;;;;;;7.30;5.28;;;;;;;13.70;38.77;63411.50;5029307;28;20252;-80
2023/03/14 11:16:19;;;;;;;8.57;4.78;;;;;;;13.83;38.35;63422.44;5027637;28;20252;-77
2023/03/14 11:19:10;;;;;;;5.97;3.80;;;;;;;13.80;37.95;63419.31;5027498;28;20279;-78
2023/03/14 11:21:45;;;;;;;8.10;4.22;;;;;;;13.87;38.10;63433.75;5027558;28;20218;-78
2023/03/14 11:24:31;;;;;;;25.20;5.78;;;;;;;14.10;37.54;63452.00;5028783;28;20197;-79
2023/03/14 11:27:03;;;;;;;4.35;3.22;;;;;;;14.31;37.42;63476.38;5030660;28;20234;-79
2023/03/14 11:29:39;;;;;;;3.80;3.05;;;;;;;14.04;36.98;63443.19;5029275;28;20224;-78
2023/03/14 11:32:14;;;;;;;3.65;3.25;;;;;;;14.03;37.16;63442.16;5028424;28;20282;-78
2023/03/14 11:34:49;;;;;;;3.65;3.35;;;;;;;14.10;37.36;63449.94;5028193;28;20194;-78
2023/03/14 11:37:23;;;;;;;3.53;3.00;;;;;;;14.29;37.07;63474.81;5026485;28;20225;-79
2023/03/14 11:40:00;;;;;;;3.45;3.25;;;;;;;14.23;36.83;63462.91;5025534;28;20197;-79
2023/03/14 11:42:30;;;;;;;6.30;3.33;;;;;;;14.22;36.83;63464.97;5031226;28;20281;-78
2023/03/14 11:45:01;;;;;;;3.40;3.20;;;;;;;14.45;36.17;63491.44;5026810;28;20204;-78